createdAt,value
2022-10-13T00:00:47.678Z,7.77
2022-10-13T00:03:14.734Z,7.74
2022-10-13T00:05:49.362Z,7.86
2022-10-13T00:08:19.775Z,7.85
2022-10-13T00:10:48.500Z,7.77
2022-10-13T00:13:18.033Z,7.80
2022-10-13T00:15:46.493Z,7.75
2022-10-13T00:18:13.750Z,7.91
2022-10-13T00:20:45.555Z,7.92
2022-10-13T00:23:13.823Z,7.85
2022-10-13T00:25:42.389Z,7.71
2022-10-13T00:28:09.286Z,7.79
2022-10-13T00:30:38.862Z,7.87
2022-10-13T00:33:06.112Z,7.94
2022-10-13T00:35:33.255Z,7.95
2022-10-13T00:37:59.887Z,8.03
2022-10-13T00:40:30.791Z,8.04
2022-10-13T00:42:57.338Z,7.94
2022-10-13T00:45:24.971Z,7.99
2022-10-13T00:47:57.101Z,7.95
2022-10-13T00:50:33.585Z,8.04
2022-10-13T00:53:02.621Z,7.94
2022-10-13T00:55:36.055Z,7.90
2022-10-13T00:58:07.876Z,7.97
2022-10-13T01:00:35.219Z,7.78
2022-10-13T01:03:02.884Z,7.85
2022-10-13T01:05:30.251Z,7.81
2022-10-13T01:07:58.220Z,7.70
2022-10-13T01:10:36.939Z,7.88
2022-10-13T01:13:22.433Z,7.88
2022-10-13T01:15:57.652Z,8.00
2022-10-13T01:18:40.641Z,7.97
2022-10-13T01:21:09.906Z,7.85
2022-10-13T01:23:51.190Z,7.73
2022-10-13T01:26:54.293Z,7.78
2022-10-13T01:29:42.305Z,7.80
2022-10-13T01:32:35.874Z,7.88
2022-10-13T01:35:11.465Z,7.85
2022-10-13T01:37:47.087Z,7.89
2022-10-13T01:40:37.652Z,7.79
2022-10-13T01:43:13.815Z,7.81
2022-10-13T01:45:56.409Z,7.87
2022-10-13T01:48:25.297Z,7.85
2022-10-13T01:50:54.178Z,7.77
2022-10-13T01:53:21.499Z,7.86
2022-10-13T01:55:55.830Z,7.93
2022-10-13T01:58:25.033Z,7.83
2022-10-13T02:01:18.659Z,7.98
2022-10-13T02:04:20.817Z,8.05
2022-10-13T02:06:49.942Z,8.02
2022-10-13T02:09:25.901Z,8.05
2022-10-13T02:12:05.376Z,8.04
2022-10-13T02:14:36.628Z,8.11
2022-10-13T02:17:05.324Z,8.06
2022-10-13T02:19:37.571Z,8.10
2022-10-13T02:22:06.003Z,8.10
2022-10-13T02:24:32.980Z,7.93
2022-10-13T02:26:59.444Z,7.91
2022-10-13T02:29:25.884Z,7.82
2022-10-13T02:31:54.738Z,7.86
2022-10-13T02:34:21.223Z,7.77
2022-10-13T02:36:47.876Z,7.87
2022-10-13T02:39:14.543Z,7.66
2022-10-13T02:41:40.974Z,7.88
2022-10-13T02:44:07.531Z,7.72
2022-10-13T02:46:36.213Z,7.94
2022-10-13T02:49:02.747Z,8.04
2022-10-13T02:51:30.116Z,7.93
2022-10-13T02:53:56.547Z,7.92
2022-10-13T02:56:22.992Z,7.62
2022-10-13T02:58:49.486Z,7.74
2022-10-13T03:01:16.177Z,7.87
2022-10-13T03:03:43.368Z,7.97
2022-10-13T03:06:09.875Z,7.87
2022-10-13T03:08:36.341Z,7.97
2022-10-13T03:11:03.263Z,7.93
2022-10-13T03:13:30.106Z,7.90
2022-10-13T03:16:04.361Z,7.94
2022-10-13T03:18:30.804Z,7.93
2022-10-13T03:21:07.057Z,8.03
2022-10-13T03:23:36.697Z,7.99
2022-10-13T03:26:04.484Z,8.06
2022-10-13T03:28:31.115Z,8.08
2022-10-13T03:31:06.066Z,8.05
2022-10-13T03:33:32.761Z,8.07
2022-10-13T03:36:04.388Z,8.03
2022-10-13T03:38:32.414Z,8.04
2022-10-13T03:41:05.230Z,8.03
2022-10-13T03:43:31.851Z,7.87
2022-10-13T03:45:59.422Z,7.81
2022-10-13T03:48:26.702Z,7.78
2022-10-13T03:50:53.250Z,7.75
2022-10-13T03:53:20.069Z,7.73
2022-10-13T03:55:50.928Z,7.97
2022-10-13T03:58:17.743Z,7.97
2022-10-13T04:00:46.013Z,8.02
2022-10-13T04:03:12.679Z,8.08
2022-10-13T04:05:39.324Z,8.09
2022-10-13T04:08:05.884Z,8.09
2022-10-13T04:10:32.709Z,8.14
2022-10-13T04:12:59.804Z,8.24
2022-10-13T04:15:26.940Z,8.29
2022-10-13T04:17:53.404Z,8.26
2022-10-13T04:20:19.841Z,8.31
2022-10-13T04:22:46.326Z,8.32
2022-10-13T04:25:12.705Z,8.30
2022-10-13T04:27:39.521Z,8.31
2022-10-13T04:30:06.899Z,8.20
2022-10-13T04:32:33.626Z,8.14
2022-10-13T04:35:02.852Z,8.30
2022-10-13T04:37:29.354Z,8.29
2022-10-13T04:39:55.740Z,8.24
2022-10-13T04:42:22.724Z,8.13
2022-10-13T04:44:49.419Z,8.14
2022-10-13T04:47:20.811Z,8.01
2022-10-13T04:49:47.287Z,7.99
2022-10-13T04:52:14.117Z,8.16
2022-10-13T04:54:40.645Z,8.14
2022-10-13T04:58:12.197Z,8.11
2022-10-13T05:00:38.697Z,8.01
2022-10-13T05:03:05.218Z,8.04
2022-10-13T05:05:35.107Z,8.00
2022-10-13T05:08:02.606Z,7.99
2022-10-13T05:10:33.871Z,7.88
2022-10-13T05:13:01.282Z,7.97
2022-10-13T05:15:27.649Z,8.14
2022-10-13T05:17:54.212Z,8.01
2022-10-13T05:20:20.706Z,7.98
2022-10-13T05:22:47.200Z,8.06
2022-10-13T05:25:13.737Z,8.23
2022-10-13T05:27:40.214Z,8.20
2022-10-13T05:30:09.624Z,8.21
2022-10-13T05:32:36.119Z,8.14
2022-10-13T05:35:02.601Z,8.15
2022-10-13T05:37:29.254Z,8.14
2022-10-13T05:39:55.700Z,8.18
2022-10-13T05:42:22.456Z,8.11
2022-10-13T05:44:49.230Z,8.06
2022-10-13T05:47:15.640Z,8.18
2022-10-13T05:49:44.815Z,8.07
2022-10-13T05:52:12.019Z,8.17
2022-10-13T05:54:48.572Z,8.21
2022-10-13T05:57:21.157Z,8.16
2022-10-13T05:59:54.889Z,8.37
2022-10-13T06:02:24.772Z,8.41
2022-10-13T06:04:55.854Z,8.38
2022-10-13T06:07:22.414Z,8.50
2022-10-13T06:09:49.651Z,8.59
2022-10-13T06:12:16.215Z,8.64
2022-10-13T06:14:42.613Z,8.75
2022-10-13T06:17:11.382Z,8.80
2022-10-13T06:19:38.407Z,8.74
2022-10-13T06:22:08.422Z,8.65
2022-10-13T06:24:34.981Z,8.76
2022-10-13T06:27:03.582Z,8.91
2022-10-13T06:29:30.203Z,9.04
2022-10-13T06:31:56.594Z,8.84
2022-10-13T06:34:23.120Z,9.03
2022-10-13T06:36:49.551Z,8.96
2022-10-13T06:39:16.068Z,8.93
2022-10-13T06:41:42.484Z,9.20
2022-10-13T06:44:09.190Z,8.98
2022-10-13T06:46:35.706Z,8.98
2022-10-13T06:49:02.286Z,9.27
2022-10-13T06:51:29.247Z,9.47
2022-10-13T06:53:56.759Z,9.51
2022-10-13T06:56:25.487Z,9.54
2022-10-13T06:58:51.951Z,9.59
2022-10-13T07:01:18.503Z,9.34
2022-10-13T07:03:47.845Z,9.38
2022-10-13T07:06:14.356Z,9.57
2022-10-13T07:08:40.896Z,9.70
2022-10-13T07:11:15.313Z,9.75
2022-10-13T07:13:46.257Z,9.76
2022-10-13T07:16:15.755Z,9.71
2022-10-13T07:18:42.424Z,9.73
2022-10-13T07:21:09.498Z,9.85
2022-10-13T07:23:35.980Z,9.86
2022-10-13T07:26:07.375Z,9.83
2022-10-13T07:28:34.051Z,10.01
2022-10-13T07:31:00.645Z,9.98
2022-10-13T07:33:27.386Z,10.05
2022-10-13T07:35:53.802Z,10.20
2022-10-13T07:38:20.342Z,10.26
2022-10-13T07:40:47.859Z,10.45
2022-10-13T07:43:14.316Z,10.31
2022-10-13T07:45:40.885Z,10.10
2022-10-13T07:48:07.325Z,9.94
2022-10-13T07:50:33.955Z,9.89
2022-10-13T07:53:00.575Z,10.06
2022-10-13T07:55:27.404Z,10.06
2022-10-13T07:57:54.055Z,10.11
2022-10-13T08:00:20.777Z,10.12
2022-10-13T08:02:51.040Z,10.09
2022-10-13T08:05:17.944Z,10.33
2022-10-13T08:07:44.489Z,10.38
2022-10-13T08:10:11.061Z,10.47
2022-10-13T08:12:37.893Z,10.41
2022-10-13T08:15:06.718Z,10.52
2022-10-13T08:17:33.419Z,10.03
2022-10-13T08:19:59.884Z,10.39
2022-10-13T08:22:28.552Z,10.53
2022-10-13T08:24:55.977Z,10.58
2022-10-13T08:27:32.840Z,10.67
2022-10-13T08:30:09.690Z,10.49
2022-10-13T08:32:36.292Z,10.73
2022-10-13T08:35:04.336Z,10.77
2022-10-13T08:37:30.948Z,11.22
2022-10-13T08:39:57.471Z,11.34
2022-10-13T08:42:23.959Z,11.42
2022-10-13T08:45:39.981Z,11.13
2022-10-13T08:48:07.463Z,11.40
2022-10-13T08:50:39.325Z,11.39
2022-10-13T08:53:33.255Z,11.25
2022-10-13T08:56:15.163Z,11.29
2022-10-13T08:58:45.232Z,11.11
2022-10-13T09:01:18.510Z,11.46
2022-10-13T09:04:11.988Z,11.65
2022-10-13T09:06:45.072Z,11.59
2022-10-13T09:09:14.362Z,11.63
2022-10-13T09:11:44.658Z,11.49
2022-10-13T09:14:22.299Z,11.58
2022-10-13T09:16:49.499Z,11.72
2022-10-13T09:19:25.131Z,11.90
2022-10-13T09:21:57.595Z,11.96
2022-10-13T09:24:26.391Z,11.98
2022-10-13T09:27:05.510Z,11.79
2022-10-13T09:29:32.357Z,11.73
2022-10-13T09:32:21.079Z,11.72
2022-10-13T09:34:48.477Z,11.74
2022-10-13T09:37:25.609Z,11.79
2022-10-13T09:40:11.916Z,11.64
2022-10-13T09:42:38.751Z,11.65
2022-10-13T09:45:21.331Z,11.76
2022-10-13T09:47:57.831Z,11.57
2022-10-13T09:50:27.025Z,11.73
2022-10-13T09:52:54.316Z,11.90
2022-10-13T09:55:34.920Z,11.63
2022-10-13T09:58:24.508Z,11.81
2022-10-13T10:00:53.307Z,11.95
2022-10-13T10:03:29.321Z,12.08
2022-10-13T10:06:01.746Z,12.35
2022-10-13T10:09:01.678Z,11.94
2022-10-13T10:11:30.540Z,12.16
2022-10-13T10:13:57.639Z,12.13
2022-10-13T10:32:42.801Z,11.98
2022-10-13T10:35:21.053Z,11.79
2022-10-13T10:38:20.462Z,12.12
2022-10-13T10:40:56.324Z,12.33
2022-10-13T10:43:43.216Z,12.21
2022-10-13T10:46:22.541Z,12.41
2022-10-13T10:48:53.949Z,12.71
2022-10-13T10:51:25.326Z,12.90
2022-10-13T10:54:23.802Z,13.15
2022-10-13T10:57:16.197Z,13.43
2022-10-13T11:00:10.223Z,14.08
2022-10-13T11:03:01.687Z,13.76
2022-10-13T11:06:20.866Z,13.65
2022-10-13T11:08:49.326Z,13.54
2022-10-13T11:11:24.688Z,13.50
2022-10-13T11:13:59.713Z,13.68
2022-10-13T11:16:31.253Z,13.88
2022-10-13T11:19:19.927Z,13.49
2022-10-13T11:21:52.444Z,13.54
2022-10-13T11:24:33.907Z,13.27
2022-10-13T11:27:10.625Z,12.98
2022-10-13T11:29:46.616Z,13.34
2022-10-13T11:32:30.489Z,13.08
2022-10-13T11:35:06.142Z,13.30
2022-10-13T11:38:08.774Z,13.43
2022-10-13T11:40:58.977Z,13.62
2022-10-13T11:43:40.842Z,13.57
2022-10-13T11:46:21.921Z,13.43
2022-10-13T11:49:16.771Z,13.57
2022-10-13T11:52:02.121Z,13.44
2022-10-13T11:54:54.713Z,13.43
2022-10-13T11:57:24.322Z,13.52
2022-10-13T11:59:55.382Z,13.47
2022-10-13T12:02:48.312Z,13.37
2022-10-13T12:05:25.514Z,13.35
2022-10-13T12:07:55.519Z,13.45
2022-10-13T12:10:31.607Z,13.56
2022-10-13T12:13:01.014Z,13.39
2022-10-13T12:15:37.916Z,13.47
2022-10-13T12:18:21.430Z,13.75
2022-10-13T12:20:56.236Z,13.64
2022-10-13T12:23:22.741Z,13.78
2022-10-13T12:25:56.508Z,13.51
2022-10-13T12:28:25.865Z,13.66
2022-10-13T12:30:58.582Z,13.76
2022-10-13T12:33:35.314Z,13.95
2022-10-13T12:36:18.774Z,14.17
2022-10-13T12:38:54.015Z,14.08
2022-10-13T12:41:30.538Z,13.73
2022-10-13T12:44:01.044Z,13.89
2022-10-13T12:46:47.684Z,13.84
2022-10-13T12:49:17.136Z,13.91
2022-10-13T12:51:46.575Z,14.00
2022-10-13T12:54:24.393Z,14.19
2022-10-13T12:56:56.395Z,14.18
2022-10-13T12:59:24.556Z,14.05
2022-10-13T13:01:57.010Z,14.35
2022-10-13T13:04:38.331Z,14.57
2022-10-13T13:07:06.612Z,14.34
2022-10-13T13:09:35.547Z,14.51
2022-10-13T13:12:21.841Z,14.58
2022-10-13T13:14:52.375Z,14.34
2022-10-13T13:17:38.504Z,14.63
2022-10-13T13:20:21.751Z,14.56
2022-10-13T13:22:48.423Z,14.53
2022-10-13T13:25:15.086Z,14.79
2022-10-13T13:27:41.522Z,14.71
2022-10-13T13:30:12.910Z,14.93
2022-10-13T13:32:39.706Z,14.84
2022-10-13T13:35:07.688Z,14.89
2022-10-13T13:37:37.334Z,14.79
2022-10-13T13:40:05.793Z,14.89
2022-10-13T13:42:32.561Z,14.96
2022-10-13T13:44:59.101Z,14.83
2022-10-13T13:47:26.733Z,14.79
2022-10-13T13:49:54.633Z,14.75
2022-10-13T13:52:21.971Z,14.80
2022-10-13T13:54:49.458Z,14.81
2022-10-13T13:57:16.407Z,14.87
2022-10-13T13:59:43.316Z,14.59
2022-10-13T14:02:21.256Z,14.74
2022-10-13T14:04:47.925Z,14.68
2022-10-13T14:07:14.579Z,14.80
2022-10-13T14:09:41.021Z,14.58
2022-10-13T14:12:09.521Z,14.44
2022-10-13T14:14:36.003Z,14.35
2022-10-13T14:17:03.710Z,14.46
2022-10-13T14:19:33.448Z,14.09
2022-10-13T14:22:03.704Z,14.50
2022-10-13T14:24:33.662Z,14.53
2022-10-13T14:27:02.114Z,14.44
2022-10-13T14:29:28.553Z,14.57
2022-10-13T14:31:54.988Z,14.47
2022-10-13T14:34:21.643Z,14.41
2022-10-13T14:36:48.120Z,14.18
2022-10-13T14:39:15.364Z,14.19
2022-10-13T14:41:41.874Z,14.10
2022-10-13T14:44:11.493Z,14.24
2022-10-13T14:46:40.413Z,14.05
2022-10-13T14:49:06.893Z,14.28
2022-10-13T14:51:34.881Z,14.14
2022-10-13T14:54:02.673Z,13.94
2022-10-13T14:56:30.319Z,14.20
2022-10-13T14:59:00.645Z,14.27
2022-10-13T15:01:35.919Z,14.27
2022-10-13T15:04:03.380Z,14.24
2022-10-13T15:06:30.997Z,14.28
2022-10-13T15:08:57.722Z,14.15
2022-10-13T15:11:25.871Z,14.31
2022-10-13T15:13:52.822Z,14.10
2022-10-13T15:16:24.360Z,14.15
2022-10-13T15:18:51.154Z,14.18
2022-10-13T15:21:18.566Z,14.12
2022-10-13T15:23:45.432Z,14.17
2022-10-13T15:26:13.653Z,14.06
2022-10-13T15:28:43.507Z,13.98
2022-10-13T15:31:11.762Z,14.04
2022-10-13T15:33:38.766Z,13.95
2022-10-13T15:36:05.341Z,13.83
2022-10-13T15:38:31.845Z,13.73
2022-10-13T15:41:03.556Z,13.75
2022-10-13T15:43:30.294Z,13.76
2022-10-13T15:46:02.823Z,13.69
2022-10-13T15:48:29.442Z,13.51
2022-10-13T15:50:55.842Z,13.51
2022-10-13T15:53:22.712Z,13.38
2022-10-13T15:55:49.455Z,13.39
2022-10-13T15:58:16.595Z,13.35
2022-10-13T16:00:43.592Z,13.33
2022-10-13T16:03:15.173Z,13.26
2022-10-13T16:05:43.203Z,13.18
2022-10-13T16:08:11.086Z,13.16
2022-10-13T16:10:43.926Z,12.99
2022-10-13T16:13:14.957Z,13.01
2022-10-13T16:15:42.707Z,12.84
2022-10-13T16:18:09.328Z,12.91
2022-10-13T16:20:37.825Z,12.92
2022-10-13T16:23:04.820Z,12.77
2022-10-13T16:25:31.988Z,12.76
2022-10-13T16:27:59.384Z,12.68
2022-10-13T16:30:25.911Z,12.52
2022-10-13T16:32:52.239Z,12.68
2022-10-13T16:35:18.669Z,12.62
2022-10-13T16:37:45.104Z,12.49
2022-10-13T16:40:11.558Z,12.50
2022-10-13T16:42:38.079Z,12.47
2022-10-13T16:45:04.788Z,12.54
2022-10-13T16:47:31.249Z,12.38
2022-10-13T16:49:57.647Z,12.35
2022-10-13T16:52:24.107Z,12.28
2022-10-13T16:54:51.724Z,12.21
2022-10-13T16:57:18.410Z,12.08
2022-10-13T16:59:48.855Z,11.93
2022-10-13T17:02:15.474Z,12.04
2022-10-13T17:04:43.175Z,12.03
2022-10-13T17:07:09.664Z,11.89
2022-10-13T17:09:36.164Z,11.96
2022-10-13T17:12:02.788Z,11.96
2022-10-13T17:14:29.175Z,11.85
2022-10-13T17:16:58.019Z,11.88
2022-10-13T17:19:25.101Z,11.79
2022-10-13T17:21:51.545Z,11.77
2022-10-13T17:24:18.299Z,11.75
2022-10-13T17:26:44.756Z,11.71
2022-10-13T17:29:11.367Z,11.60
2022-10-13T17:31:37.985Z,11.59
2022-10-13T17:34:06.030Z,11.47
2022-10-13T17:36:34.097Z,11.44
2022-10-13T17:39:09.119Z,11.36
2022-10-13T17:41:40.140Z,11.05
2022-10-13T17:44:06.688Z,11.19
2022-10-13T17:46:38.362Z,11.20
2022-10-13T17:49:07.863Z,11.15
2022-10-13T17:51:34.913Z,11.09
2022-10-13T17:54:02.381Z,11.03
2022-10-13T17:56:29.329Z,11.05
2022-10-13T17:58:56.690Z,10.99
2022-10-13T18:01:27.376Z,11.04
2022-10-13T18:03:57.065Z,11.04
2022-10-13T18:06:37.927Z,11.00
2022-10-13T18:09:11.193Z,10.97
2022-10-13T18:11:38.624Z,11.01
2022-10-13T18:14:06.127Z,10.87
2022-10-13T18:16:32.871Z,10.92
2022-10-13T18:18:59.354Z,10.79
2022-10-13T18:21:29.388Z,10.90
2022-10-13T18:23:58.369Z,10.88
2022-10-13T18:26:26.743Z,10.95
2022-10-13T18:28:53.864Z,10.87
2022-10-13T18:31:29.946Z,10.94
2022-10-13T18:34:01.268Z,10.96
2022-10-13T18:36:35.178Z,10.93
2022-10-13T18:39:08.233Z,10.85
2022-10-13T18:41:36.699Z,10.87
2022-10-13T18:44:04.042Z,10.91
2022-10-13T18:46:31.330Z,10.85
2022-10-13T18:48:58.331Z,10.76
2022-10-13T18:51:26.245Z,10.83
2022-10-13T18:53:52.711Z,10.85
2022-10-13T18:56:23.488Z,10.86
2022-10-13T18:58:55.682Z,10.86
2022-10-13T19:01:26.609Z,10.85
2022-10-13T19:03:54.384Z,10.83
2022-10-13T19:06:26.558Z,10.73
2022-10-13T19:08:58.487Z,10.84
2022-10-13T19:11:25.104Z,10.76
2022-10-13T19:13:51.749Z,10.79
2022-10-13T19:16:20.783Z,10.80
2022-10-13T19:18:48.591Z,10.76
2022-10-13T19:21:15.093Z,10.64
2022-10-13T19:23:42.114Z,10.64
2022-10-13T19:26:29.708Z,10.63
2022-10-13T19:28:58.928Z,10.60
2022-10-13T19:31:27.500Z,10.38
2022-10-13T19:33:55.640Z,10.50
2022-10-13T19:36:33.731Z,10.51
2022-10-13T19:39:01.670Z,10.53
2022-10-13T19:41:30.734Z,10.59
2022-10-13T19:43:58.567Z,10.59
2022-10-13T19:46:34.729Z,10.58
2022-10-13T19:49:02.256Z,10.61
2022-10-13T19:51:28.739Z,10.49
2022-10-13T19:53:55.272Z,10.66
2022-10-13T19:56:26.095Z,10.68
2022-10-13T19:58:53.620Z,10.69
2022-10-13T20:01:22.428Z,10.70
2022-10-13T20:03:49.890Z,10.73
2022-10-13T20:06:17.624Z,10.68
2022-10-13T20:08:45.114Z,10.77
2022-10-13T20:11:15.161Z,10.73
2022-10-13T20:13:45.170Z,10.72
2022-10-13T20:16:14.318Z,10.66
2022-10-13T20:18:41.439Z,10.61
2022-10-13T20:21:10.853Z,10.81
2022-10-13T20:23:37.716Z,10.90
2022-10-13T20:26:07.768Z,10.94
2022-10-13T20:28:39.241Z,11.00
2022-10-13T20:31:09.196Z,11.03
2022-10-13T20:33:36.066Z,10.96
2022-10-13T20:36:05.343Z,11.02
2022-10-13T20:38:35.350Z,11.06
2022-10-13T20:41:25.968Z,10.99
2022-10-13T20:43:54.542Z,10.84
2022-10-13T20:46:21.899Z,10.89
2022-10-13T20:49:09.845Z,10.70
2022-10-13T20:51:35.652Z,10.79
2022-10-13T20:54:02.041Z,10.88
2022-10-13T20:56:28.510Z,10.80
2022-10-13T20:58:55.078Z,10.81
2022-10-13T21:01:22.705Z,10.89
2022-10-13T21:03:52.926Z,10.81
2022-10-13T21:06:19.640Z,10.89
2022-10-13T21:08:47.087Z,10.86
2022-10-13T21:11:15.634Z,10.89
2022-10-13T21:13:43.689Z,10.88
2022-10-13T21:16:18.496Z,10.69
2022-10-13T21:18:48.109Z,10.80
2022-10-13T21:21:23.123Z,10.76
2022-10-13T21:23:56.284Z,10.81
2022-10-13T21:26:24.654Z,10.78
2022-10-13T21:28:51.998Z,10.62
2022-10-13T21:31:21.366Z,10.70
2022-10-13T21:33:48.360Z,10.67
2022-10-13T21:36:17.586Z,10.79
2022-10-13T21:38:46.246Z,10.77
2022-10-13T21:41:14.456Z,10.76
2022-10-13T21:43:41.213Z,10.79
2022-10-13T21:46:20.048Z,10.68
2022-10-13T21:48:54.018Z,10.68
2022-10-13T21:51:24.717Z,10.73
2022-10-13T21:53:56.433Z,10.65
2022-10-13T21:56:24.230Z,10.80
2022-10-13T21:58:50.723Z,10.79
2022-10-13T22:17:30.536Z,10.38
2022-10-13T22:19:57.021Z,10.40
2022-10-13T22:22:26.381Z,10.53
2022-10-13T22:24:55.154Z,10.50
2022-10-13T22:27:21.940Z,10.67
2022-10-13T22:29:48.686Z,10.69
2022-10-13T22:32:15.169Z,10.73
2022-10-13T22:34:41.632Z,10.70
2022-10-13T22:37:08.091Z,10.70
2022-10-13T22:39:34.701Z,10.69
2022-10-13T22:42:07.912Z,10.68
2022-10-13T22:44:34.297Z,10.77
2022-10-13T22:47:00.749Z,10.79
2022-10-13T22:49:27.273Z,10.74
2022-10-13T22:51:53.621Z,10.80
2022-10-13T22:54:20.082Z,10.71
2022-10-13T22:56:46.493Z,10.74
2022-10-13T22:59:13.880Z,10.77
2022-10-13T23:01:40.533Z,10.79
2022-10-13T23:04:06.992Z,10.80
2022-10-13T23:06:34.960Z,10.82
2022-10-13T23:09:04.612Z,10.75
2022-10-13T23:11:31.064Z,10.74
2022-10-13T23:14:00.917Z,10.78
2022-10-13T23:16:28.081Z,10.74
2022-10-13T23:18:54.563Z,10.81
2022-10-13T23:21:27.378Z,10.87
2022-10-13T23:23:55.838Z,10.77
2022-10-13T23:26:22.819Z,10.70
2022-10-13T23:28:49.459Z,10.79
2022-10-13T23:31:17.535Z,10.79
2022-10-13T23:33:44.794Z,10.90
2022-10-13T23:36:19.217Z,10.91
2022-10-13T23:38:54.874Z,10.92
2022-10-13T23:41:21.380Z,10.85
2022-10-13T23:43:48.170Z,10.68
2022-10-13T23:46:14.748Z,10.81
2022-10-13T23:48:41.381Z,10.86
2022-10-13T23:51:12.726Z,10.85
2022-10-13T23:53:40.104Z,10.86
2022-10-13T23:56:08.390Z,10.76
2022-10-13T23:58:39.519Z,10.72
